Time;durP1;ratioP1;P1;durP2;ratioP2;P2;SDS_P1;SDS_P2;PMS_P1;PMS_P2;Temp;Humidity;BMP_temperature;BMP_pressure;BME280_temperature;BME280_humidity;BME280_pressure;Samples;Min_cycle;Max_cycle;Signal;HPM_P1;HPM_P2
2020/12/20 00:01:41;;;;;;;24.02;5.45;;;4.10;84.40;;;3.12;68.86;95576.34;5046100;28;20261;-80
2020/12/20 00:04:09;;;;;;;16.02;5.30;;;4.10;84.40;;;3.12;68.80;95563.38;5052063;28;20319;-80
2020/12/20 00:06:39;;;;;;;18.95;5.25;;;4.10;84.30;;;3.12;69.14;95565.97;5052404;28;20184;-80
2020/12/20 00:09:20;;;;;;;20.13;5.60;;;4.10;84.30;;;3.12;68.95;95562.59;5051804;28;20685;-81
2020/12/20 00:11:53;;;;;;;15.23;5.30;;;4.10;84.40;;;3.08;68.69;95558.63;5052332;28;20208;-80
2020/12/20 00:14:30;;;;;;;14.27;5.55;;;4.10;84.40;;;3.12;nan;95560.00;5052279;28;20232;-80
2020/12/20 00:17:00;;;;;;;16.05;5.90;;;4.10;84.40;;;3.13;68.74;95562.44;5051573;28;20183;-80
2020/12/20 00:19:28;;;;;;;13.90;5.60;;;4.10;84.40;;;3.12;68.86;95558.22;5050911;28;20246;-80
2020/12/20 00:22:10;;;;;;;16.70;5.53;;;4.10;84.50;;;3.11;68.74;95561.75;5035071;28;20204;-80
2020/12/20 00:24:37;;;;;;;23.08;6.03;;;4.10;84.50;;;3.11;68.91;95560.94;5051497;28;20208;-79
2020/12/20 00:27:06;;;;;;;14.95;5.38;;;4.00;84.40;;;3.12;68.81;95567.75;5035103;28;20246;-80
2020/12/20 00:29:34;;;;;;;15.43;5.75;;;4.10;84.40;;;3.12;69.03;95563.38;5019135;28;20227;-80
2020/12/20 00:32:03;;;;;;;29.00;5.57;;;4.00;84.40;;;3.14;68.82;95578.84;5035244;28;20678;-80
2020/12/20 00:34:30;;;;;;;18.13;5.90;;;4.00;84.40;;;3.14;69.24;95571.88;5050833;28;20263;-80
2020/12/20 00:36:57;;;;;;;23.42;5.60;;;4.00;84.50;;;3.16;69.08;95574.31;5034121;28;20216;-80
2020/12/20 00:39:25;;;;;;;22.52;5.88;;;4.10;84.60;;;3.17;68.94;95571.63;5051196;28;20269;-81
2020/12/20 00:42:05;;;;;;;17.13;5.82;;;4.10;84.50;;;3.16;68.64;95577.75;5034831;28;20669;-80
2020/12/20 00:44:34;;;;;;;24.83;6.47;;;4.10;84.50;;;3.17;68.75;95576.81;5031178;28;20212;-80
2020/12/20 00:47:03;;;;;;;15.82;6.82;;;4.10;84.50;;;3.12;68.72;95573.75;5031281;28;20204;-80
2020/12/20 00:49:32;;;;;;;11.55;5.70;;;4.10;84.40;;;3.12;68.70;95571.16;5065352;28;20326;-80
2020/12/20 00:52:04;;;;;;;20.52;5.85;;;4.10;84.40;;;3.09;68.96;95571.44;5051345;28;20204;-80
2020/12/20 00:54:32;;;;;;;25.63;6.47;;;4.10;84.30;;;3.10;68.99;95575.69;5051073;28;20232;-81
2020/12/20 00:57:00;;;;;;;20.42;6.35;;;4.10;84.30;;;3.07;68.72;95572.53;5067825;28;20184;-81
2020/12/20 00:59:26;;;;;;;21.98;6.00;;;4.10;84.30;;;3.07;68.91;95577.72;5068047;28;20223;-80
2020/12/20 01:01:58;;;;;;;18.13;5.93;;;4.00;84.20;;;3.03;68.78;95569.38;5051285;28;20189;-80
2020/12/20 01:04:28;;;;;;;9.50;5.60;;;4.00;84.30;;;3.02;69.15;95565.94;5034726;28;20243;-80
2020/12/20 01:06:59;;;;;;;8.57;5.38;;;4.00;84.30;;;3.02;68.66;95568.53;5051252;28;20685;-80
2020/12/20 01:09:30;;;;;;;7.43;5.10;;;4.00;84.30;;;3.01;69.07;95563.47;5067955;28;20274;-80
2020/12/20 01:12:00;;;;;;;6.72;5.05;;;4.00;84.30;;;3.03;69.03;95567.59;5049969;28;20208;-80
2020/12/20 01:14:46;;;;;;;10.77;5.30;;;4.00;84.40;;;3.01;68.99;95579.84;5051276;28;20243;-80
2020/12/20 01:17:13;;;;;;;14.10;5.60;;;4.00;84.30;;;3.02;68.76;95583.28;5050709;28;20209;-81
2020/12/20 01:19:45;;;;;;;6.88;4.82;;;4.00;84.30;;;3.02;68.75;95580.69;5050150;28;20239;-80
2020/12/20 01:22:12;;;;;;;11.90;5.18;;;3.90;84.30;;;2.99;68.96;95573.16;5051006;28;20223;-81
2020/12/20 01:24:40;;;;;;;9.75;5.50;;;4.00;84.40;;;3.03;69.04;95585.72;5018362;28;20223;-80
2020/12/20 01:27:13;;;;;;;7.57;4.85;;;4.00;84.40;;;3.04;68.90;95573.59;5050983;28;20192;-80
2020/12/20 01:29:42;;;;;;;12.18;5.32;;;4.00;84.50;;;3.04;69.12;95583.97;5034196;28;20247;-80
2020/12/20 01:32:08;;;;;;;17.65;5.55;;;3.90;84.40;;;3.03;68.70;95577.94;5051079;28;20200;-80
2020/12/20 01:34:38;;;;;;;11.88;5.55;;;3.90;84.40;;;3.01;68.73;95577.25;5034183;28;20435;-78
2020/12/20 01:37:05;;;;;;;12.13;6.00;;;4.00;84.50;;;3.01;68.81;95573.84;5051017;28;20279;-80
2020/12/20 01:39:38;;;;;;;11.20;5.90;;;4.00;84.40;;;2.99;68.87;95567.97;5019677;28;20234;-80
2020/12/20 01:42:06;;;;;;;11.45;6.00;;;4.10;84.40;;;3.00;68.88;95564.44;5034371;28;20246;-81
2020/12/20 01:44:36;;;;;;;11.15;6.45;;;4.00;84.40;;;2.98;68.97;95566.31;5033838;28;20220;-80
2020/12/20 01:47:04;;;;;;;12.88;5.75;;;4.00;84.30;;;2.95;68.69;95561.41;5050130;28;20732;-80
2020/12/20 01:49:32;;;;;;;11.30;6.05;;;4.00;84.30;;;2.97;68.93;95568.09;5049774;28;20310;-81
2020/12/20 01:52:02;;;;;;;14.85;7.20;;;3.90;84.30;;;2.93;68.79;95558.94;5051258;28;20227;-80
2020/12/20 01:54:30;;;;;;;9.02;5.93;;;3.90;84.30;;;2.98;69.02;95566.31;5063589;28;20279;-80
2020/12/20 01:57:20;;;;;;;21.08;5.70;;;3.90;84.30;;;2.97;68.96;95568.09;5017316;28;20270;-79
2020/12/20 02:00:04;;;;;;;14.13;5.80;;;3.90;84.30;;;2.97;69.07;95559.53;5032847;28;20235;-80
2020/12/20 02:02:40;;;;;;;18.67;6.65;;;3.90;84.30;;;2.96;68.93;95563.88;5030900;28;20197;-80
2020/12/20 02:05:11;;;;;;;17.65;6.65;;;3.90;85.10;;;2.96;68.88;95563.88;5027183;28;20220;-80
2020/12/20 02:07:38;;;;;;;16.95;6.20;;;3.90;84.40;;;2.95;69.11;95564.81;5034119;28;20198;-80
2020/12/20 02:10:05;;;;;;;13.60;6.97;;;3.90;84.40;;;2.95;68.64;95559.63;5050215;28;20223;-80
2020/12/20 02:12:35;;;;;;;12.27;6.28;;;3.90;84.40;;;2.93;68.95;95564.13;5034146;28;20224;-80
2020/12/20 02:15:15;;;;;;;13.88;6.00;;;3.90;84.40;;;2.90;68.65;95556.59;5016867;28;20237;-80
2020/12/20 02:17:44;;;;;;;12.65;5.78;;;3.90;84.30;;;2.92;68.89;95546.94;5030517;28;20220;-80
2020/12/20 02:20:19;;;;;;;25.98;6.43;;;3.90;84.40;;;2.91;68.89;95547.88;5049932;28;20227;-80
2020/12/20 02:22:56;;;;;;;19.02;6.82;;;3.90;84.40;;;2.89;68.89;95554.97;5020487;28;20298;-80
2020/12/20 02:25:28;;;;;;;18.05;7.07;;;3.90;84.30;;;2.87;68.51;95549.91;5038232;28;20285;-79
2020/12/20 02:28:03;;;;;;;11.07;6.53;;;3.90;84.30;;;2.87;68.58;95549.09;5038358;28;20215;-80
2020/12/20 02:30:35;;;;;;;17.58;6.55;;;3.90;84.30;;;2.87;68.79;95547.31;5053876;28;20598;-79
2020/12/20 02:33:10;;;;;;;11.65;6.28;;;3.80;84.30;;;2.86;69.01;95548.25;5034005;28;20295;-80
2020/12/20 02:35:37;;;;;;;23.80;6.15;;;3.90;84.40;;;2.86;68.92;95548.25;5044917;28;20227;-81
2020/12/20 02:38:04;;;;;;;25.02;7.05;;;3.80;84.30;;;2.87;69.18;95554.28;5053974;28;20684;-81
2020/12/20 02:40:34;;;;;;;21.92;6.13;;;3.80;84.30;;;2.88;68.88;95553.31;5070680;28;20243;-80
2020/12/20 02:43:07;;;;;;;24.00;6.80;;;3.80;84.40;;;2.85;69.04;95554.38;5054633;28;20294;-81
2020/12/20 02:45:35;;;;;;;28.85;7.13;;;3.80;84.40;;;2.82;69.13;95546.91;5053135;28;20310;-80
2020/12/20 02:48:04;;;;;;;26.45;8.25;;;3.80;84.40;;;2.84;69.04;95546.75;5070599;28;20254;-80
2020/12/20 02:50:39;;;;;;;19.58;7.65;;;3.80;84.40;;;2.83;68.77;95539.94;5055191;28;20237;-80
2020/12/20 02:53:07;;;;;;;22.67;6.82;;;3.80;84.40;;;2.81;69.01;95542.66;5037315;28;20731;-80
2020/12/20 02:55:35;;;;;;;23.38;6.93;;;3.80;84.40;;;2.80;69.00;95533.25;5037122;28;20315;-80
2020/12/20 02:58:10;;;;;;;26.20;7.47;;;3.80;84.40;;;2.82;69.15;95535.69;5037602;28;20249;-79
2020/12/20 03:00:48;;;;;;;32.15;7.47;;;3.80;84.40;;;2.82;69.05;95538.28;5053433;28;20319;-80
2020/12/20 03:03:17;;;;;;;25.98;7.50;;;3.80;84.50;;;2.85;69.14;95541.44;5036832;28;20192;-81
2020/12/20 03:05:48;;;;;;;36.08;7.45;;;3.80;84.50;;;2.82;69.14;95539.13;5033248;28;20739;-80
2020/12/20 03:08:15;;;;;;;25.88;6.78;;;3.90;84.60;;;2.85;69.35;95533.66;5033231;28;20207;-81
2020/12/20 03:10:44;;;;;;;28.70;7.70;;;3.80;84.60;;;2.87;69.08;95539.53;5010300;28;20236;-80
2020/12/20 03:13:11;;;;;;;37.38;7.88;;;3.80;84.60;;;2.86;69.00;95530.13;5033656;28;20196;-81
2020/12/20 03:15:41;;;;;;;42.17;8.02;;;3.80;84.60;;;2.87;68.92;95534.38;5017069;28;20297;-81
2020/12/20 03:18:10;;;;;;;39.50;7.25;;;3.80;84.50;;;2.88;68.84;95522.22;5019398;28;20197;-79
2020/12/20 03:20:53;;;;;;;39.00;7.28;;;3.80;84.50;;;2.82;68.88;95526.16;5037989;28;20224;-79
2020/12/20 03:23:21;;;;;;;36.80;7.22;;;3.80;84.50;;;2.85;69.15;95525.88;5034008;28;20211;-80
2020/12/20 03:26:08;;;;;;;28.60;6.72;;;3.80;84.50;;;2.82;69.00;95531.34;5050338;28;20211;-80
2020/12/20 03:28:48;;;;;;;21.30;6.53;;;3.80;84.50;;;2.81;69.17;95527.09;5053141;28;20196;-80
2020/12/20 03:31:49;;;;;;;23.90;6.95;;;3.80;84.50;;;2.84;69.08;95526.03;5039733;28;20215;-80
2020/12/20 03:34:37;;;;;;;27.48;6.80;;;3.90;84.60;;;2.85;69.08;95528.47;5050688;28;20223;-80
2020/12/20 03:37:15;;;;;;;32.75;6.80;;;3.80;84.50;;;2.84;69.06;95526.03;5051528;28;20195;-80
2020/12/20 03:39:52;;;;;;;24.15;6.80;;;3.80;84.50;;;2.86;69.28;95527.53;5050276;28;20268;-80
2020/12/20 03:42:19;;;;;;;23.92;7.13;;;3.90;84.60;;;2.84;69.15;95520.84;5050440;28;20291;-81
2020/12/20 03:44:47;;;;;;;31.15;7.47;;;3.90;85.30;;;2.85;69.30;95515.53;5050380;28;20678;-80
2020/12/20 03:47:14;;;;;;;34.38;7.18;;;3.80;84.50;;;2.88;69.37;95511.84;5031890;28;20669;-80
2020/12/20 03:49:43;;;;;;;40.88;7.07;;;3.80;84.50;;;2.88;68.79;95522.22;5058415;28;20235;-80
2020/12/20 03:52:10;;;;;;;25.92;6.82;;;3.80;84.50;;;2.90;69.16;95519.53;5038940;28;20279;-81
2020/12/20 03:54:51;;;;;;;35.38;6.82;;;3.80;84.60;;;2.90;69.20;95516.94;5067128;28;20307;-79
2020/12/20 03:57:19;;;;;;;25.75;6.30;;;3.80;84.60;;;2.93;69.15;95519.25;5049608;28;20211;-79
2020/12/20 03:59:46;;;;;;;48.25;7.22;;;3.80;84.60;;;2.91;69.17;95515.97;5049992;28;20549;-80
2020/12/20 04:02:14;;;;;;;38.35;6.90;;;3.80;84.60;;;2.94;69.10;95521.72;5054547;28;20196;-80
2020/12/20 04:04:40;;;;;;;26.08;6.15;;;3.80;84.60;;;2.92;69.31;95515.00;5049967;28;20266;-80
2020/12/20 04:07:07;;;;;;;29.20;6.30;;;3.90;84.60;;;2.95;69.01;95522.53;5050209;28;20196;-81
2020/12/20 04:09:38;;;;;;;29.05;6.30;;;3.90;84.60;;;2.93;68.98;95520.09;5048569;28;20220;-79
2020/12/20 04:12:18;;;;;;;33.88;6.75;;;3.90;84.60;;;2.93;69.15;95527.84;5052869;28;20203;-80
2020/12/20 04:14:47;;;;;;;34.97;6.15;;;3.90;84.60;;;2.94;68.81;95528.66;5047184;28;20257;-80
2020/12/20 04:17:14;;;;;;;31.55;6.57;;;3.90;84.50;;;2.93;69.14;95532.19;5047851;28;20203;-80
2020/12/20 04:19:41;;;;;;;32.28;6.72;;;3.90;84.50;;;2.89;69.24;95523.88;5065229;28;20223;-79
2020/12/20 04:22:23;;;;;;;28.67;7.03;;;3.90;84.60;;;2.92;69.25;95530.56;5035620;28;20638;-79
2020/12/20 04:25:11;;;;;;;30.58;7.07;;;3.90;84.50;;;2.91;68.92;95534.94;5039381;28;20228;-79
2020/12/20 04:27:57;;;;;;;31.92;7.72;;;3.90;84.50;;;2.90;68.93;95535.88;5048804;28;20595;-80
2020/12/20 04:30:26;;;;;;;19.63;7.03;;;3.90;84.50;;;2.90;68.94;95535.06;5033996;28;20265;-80
2020/12/20 04:32:55;;;;;;;20.15;6.50;;;3.90;84.50;;;2.84;69.10;95524.25;5051109;28;20310;-80
2020/12/20 04:35:22;;;;;;;17.30;7.15;;;3.90;84.50;;;2.84;68.90;95526.03;5031158;28;20243;-79
2020/12/20 04:37:49;;;;;;;21.08;7.07;;;3.80;84.50;;;2.81;69.19;95524.53;5062774;28;20204;-79
2020/12/20 04:40:25;;;;;;;12.38;6.20;;;3.90;84.50;;;2.86;69.11;95521.56;5034398;28;20215;-80
2020/12/20 04:43:10;;;;;;;9.57;6.32;;;3.80;84.40;;;2.83;68.84;95519.19;5029918;28;20204;-80
2020/12/20 04:45:43;;;;;;;19.90;6.53;;;3.80;84.40;;;2.83;68.98;95521.78;5050931;28;20223;-80
2020/12/20 04:48:17;;;;;;;19.67;6.45;;;3.80;84.50;;;2.82;69.04;95520.97;5049937;28;20207;-80
2020/12/20 04:50:54;;;;;;;13.63;6.28;;;3.80;84.50;;;2.81;69.09;95523.72;5047325;28;20236;-80
2020/12/20 04:53:24;;;;;;;20.55;6.60;;;3.80;84.40;;;2.84;69.09;95520.84;5034319;28;20269;-80
2020/12/20 04:56:05;;;;;;;15.63;6.22;;;3.80;84.50;;;2.81;69.28;95516.75;5036142;28;20232;-80
2020/12/20 04:59:02;;;;;;;18.35;7.20;;;3.80;84.60;;;2.83;69.19;95524.38;5047430;28;20306;-80
2020/12/20 05:01:34;;;;;;;18.60;6.95;;;3.80;84.50;;;2.82;69.11;95523.56;5035222;28;20247;-81
2020/12/20 05:04:02;;;;;;;12.55;7.55;;;3.80;84.50;;;2.82;69.24;95520.16;5049686;28;20721;-81
2020/12/20 05:06:30;;;;;;;13.13;7.65;;;3.80;84.50;;;2.83;68.97;95525.22;5034671;28;20203;-80
2020/12/20 05:09:09;;;;;;;11.55;7.88;;;3.80;84.50;;;2.80;69.01;95525.47;5032722;28;20713;-81
2020/12/20 05:11:43;;;;;;;11.73;7.20;;;3.80;84.50;;;2.79;68.94;95529.00;5047108;28;20197;-80
2020/12/20 05:14:15;;;;;;;15.05;7.20;;;3.80;84.40;;;2.76;68.93;95525.84;5047778;28;20228;-80
2020/12/20 05:17:01;;;;;;;18.70;7.25;;;3.80;84.40;;;2.74;69.07;95522.59;5050808;28;20199;-80
2020/12/20 05:19:31;;;;;;;18.05;7.40;;;3.80;84.40;;;2.74;69.08;95523.38;5021287;28;20227;-80
2020/12/20 05:22:22;;;;;;;18.33;8.10;;;3.80;84.40;;;2.76;69.08;95524.09;5021345;28;20257;-80
2020/12/20 05:25:16;;;;;;;16.83;7.38;;;3.70;84.40;;;2.71;69.52;95523.63;5035859;28;20315;-81
2020/12/20 05:27:49;;;;;;;12.25;6.82;;;3.70;84.40;;;2.77;68.86;95524.91;5019881;28;20745;-79
2020/12/20 05:30:25;;;;;;;13.10;7.18;;;3.80;84.60;;;2.76;69.05;95521.50;5021028;28;20310;-80
2020/12/20 05:33:29;;;;;;;18.40;7.53;;;3.70;84.50;;;2.78;69.24;95527.34;5026032;28;20206;-80
2020/12/20 05:36:08;;;;;;;20.30;7.65;;;3.70;84.50;;;2.79;69.21;95533.38;5020772;28;20701;-80
2020/12/20 05:38:37;;;;;;;23.30;7.35;;;3.80;84.60;;;2.76;68.99;95529.28;5034576;28;20226;-80
2020/12/20 05:41:13;;;;;;;20.95;7.32;;;3.70;84.50;;;2.80;69.13;95538.41;5035639;28;20195;-80
2020/12/20 05:43:40;;;;;;;16.52;7.40;;;3.80;84.70;;;2.80;68.93;95538.41;5034229;28;20291;-80
2020/12/20 05:46:07;;;;;;;17.35;7.60;;;3.80;84.60;;;2.80;69.19;95535.03;5017943;28;20693;-81
2020/12/20 05:48:43;;;;;;;30.95;7.75;;;3.80;84.60;;;2.80;69.20;95537.59;5035385;28;20219;-81
2020/12/20 05:51:16;;;;;;;21.33;8.27;;;3.80;84.60;;;2.77;69.21;95530.91;5030079;28;20574;-80
2020/12/20 05:53:43;;;;;;;11.13;6.93;;;3.80;84.50;;;2.80;69.25;95535.03;5046877;28;20192;-80
2020/12/20 05:56:18;;;;;;;18.08;7.20;;;3.80;84.50;;;2.81;69.10;95531.47;5017716;28;20254;-80
2020/12/20 05:58:45;;;;;;;18.50;8.90;;;3.70;84.50;;;2.79;69.23;95528.19;5031801;28;20298;-80
2020/12/20 06:01:17;;;;;;;19.65;11.18;;;3.80;84.60;;;2.80;69.25;95528.06;5034770;28;20197;-81
2020/12/20 06:03:46;;;;;;;21.05;9.60;;;3.80;84.60;;;2.83;69.09;95540.75;5017972;28;20192;-81
2020/12/20 06:06:15;;;;;;;25.55;8.80;;;3.80;84.60;;;2.82;68.90;95538.28;5018334;28;20295;-81
2020/12/20 06:08:49;;;;;;;19.25;8.32;;;3.80;84.70;;;2.86;68.80;95543.09;5048022;28;20192;-81
2020/12/20 06:11:24;;;;;;;21.42;8.45;;;3.80;84.70;;;2.85;69.26;95535.44;5038042;28;20697;-81
2020/12/20 06:13:54;;;;;;;22.25;9.13;;;3.80;84.60;;;2.84;69.17;95542.38;5036786;28;20279;-80
2020/12/20 06:16:26;;;;;;;15.07;9.32;;;3.80;84.60;;;2.85;69.06;95540.63;5034527;28;20224;-79
2020/12/20 06:19:04;;;;;;;15.85;9.35;;;3.80;84.60;;;2.83;68.96;95542.53;5053092;28;20342;-80
2020/12/20 06:21:59;;;;;;;11.18;7.68;;;3.80;84.60;;;2.83;69.19;95542.53;5085019;28;20831;-80
2020/12/20 06:24:27;;;;;;;11.15;7.38;;;3.80;84.60;;;2.84;69.04;95536.38;5071071;28;20220;-80
2020/12/20 06:27:02;;;;;;;12.05;7.28;;;3.80;84.60;;;2.83;69.09;95526.97;5037577;28;20196;-81
2020/12/20 06:29:32;;;;;;;11.77;7.10;;;3.80;84.50;;;2.84;69.16;95529.44;5037862;28;20239;-81
2020/12/20 06:32:00;;;;;;;12.38;7.55;;;3.80;84.60;;;2.80;69.17;95530.66;5050240;28;20271;-81
2020/12/20 06:34:27;;;;;;;14.18;7.95;;;3.80;84.60;;;2.87;69.10;95543.91;5066821;28;20247;-80
2020/12/20 06:36:58;;;;;;;10.90;6.32;;;3.80;84.60;;;2.87;69.30;95536.97;5037168;28;20202;-80
2020/12/20 06:39:41;;;;;;;10.48;6.18;;;3.80;84.60;;;2.88;69.04;95533.41;5036833;28;20255;-81
2020/12/20 06:42:08;;;;;;;13.35;6.55;;;3.90;84.70;;;2.84;69.28;95524.25;5053370;28;20271;-81
2020/12/20 06:44:35;;;;;;;20.48;9.60;;;3.80;84.60;;;2.89;69.17;95534.22;5053965;28;20656;-81
2020/12/20 06:47:01;;;;;;;16.75;8.50;;;3.80;84.60;;;2.89;69.15;95529.06;5020662;28;20199;-80
2020/12/20 06:49:42;;;;;;;21.40;9.77;;;3.80;84.60;;;2.91;68.73;95536.72;5035666;28;20228;-81
2020/12/20 06:52:19;;;;;;;14.25;7.53;;;3.80;84.60;;;2.91;69.07;95534.13;5052817;28;20573;-81
2020/12/20 06:55:10;;;;;;;17.65;8.15;;;3.80;84.60;;;2.89;69.05;95534.22;5036789;28;20674;-80
2020/12/20 06:58:03;;;;;;;20.33;8.48;;;3.80;84.60;;;2.89;68.85;95536.81;5037077;28;20207;-80
2020/12/20 07:00:52;;;;;;;16.40;8.70;;;3.90;84.70;;;2.88;69.25;95536.00;5036575;28;20745;-81
2020/12/20 07:03:24;;;;;;;18.15;9.35;;;3.80;84.60;;;2.85;68.89;95543.22;5035604;28;20639;-80
2020/12/20 07:05:53;;;;;;;14.75;8.40;;;3.80;84.50;;;2.84;68.96;95549.34;5052282;28;20804;-80
2020/12/20 07:08:30;;;;;;;19.20;8.70;;;3.90;84.50;;;2.83;68.75;95545.94;5036760;28;20254;-79
2020/12/20 07:10:59;;;;;;;22.02;7.75;;;3.80;84.50;;;2.85;69.35;95548.41;5049030;28;20235;-79
2020/12/20 07:13:37;;;;;;;20.88;10.48;;;3.80;84.60;;;2.84;69.24;95546.75;5065441;28;20600;-81
2020/12/20 07:16:15;;;;;;;18.98;8.93;;;3.90;84.70;;;2.82;69.18;95536.53;5040842;28;20223;-81
2020/12/20 07:19:02;;;;;;;15.70;7.63;;;3.80;84.60;;;2.85;69.02;95541.44;5051142;28;20194;-81
2020/12/20 07:21:28;;;;;;;16.85;7.78;;;3.80;84.60;;;2.85;69.05;95543.22;5032620;28;20193;-81
2020/12/20 07:24:16;;;;;;;21.05;8.45;;;3.80;84.60;;;2.86;68.90;95547.47;5033479;28;20193;-81
2020/12/20 07:26:45;;;;;;;27.30;8.93;;;3.80;84.70;;;2.85;69.63;95553.59;5032934;28;20184;-81
2020/12/20 07:29:11;;;;;;;22.10;7.35;;;3.80;84.60;;;2.80;69.29;95546.19;5032062;28;20263;-81
2020/12/20 07:31:44;;;;;;;20.50;7.22;;;3.80;84.60;;;2.85;69.25;95551.00;5051598;28;20188;-80
2020/12/20 07:34:10;;;;;;;17.88;7.28;;;3.80;84.50;;;2.83;69.15;95548.53;5019575;28;20294;-81
2020/12/20 07:36:38;;;;;;;18.30;7.25;;;3.80;84.60;;;2.84;69.21;95555.34;5036359;28;20226;-81
2020/12/20 07:39:06;;;;;;;20.75;7.75;;;3.80;84.60;;;2.83;69.11;95548.53;5052436;28;20290;-81
2020/12/20 07:41:34;;;;;;;15.02;7.72;;;3.80;84.60;;;2.84;69.10;95547.56;5052608;28;20196;-81
2020/12/20 07:44:07;;;;;;;24.08;8.13;;;3.80;84.60;;;2.83;69.40;95553.72;5036102;28;20216;-81
2020/12/20 07:46:34;;;;;;;16.42;7.32;;;3.80;84.60;;;2.82;69.00;95559.84;5019777;28;20195;-80
2020/12/20 07:49:10;;;;;;;23.25;8.90;;;3.80;84.60;;;2.82;68.98;95562.44;5035077;28;20231;-79
2020/12/20 07:51:37;;;;;;;31.73;8.55;;;3.80;84.60;;;2.84;69.21;95559.72;5032510;28;20212;-81
2020/12/20 07:54:13;;;;;;;16.95;7.55;;;3.80;84.70;;;2.84;69.19;95552.75;5049011;28;20216;-81
2020/12/20 07:56:45;;;;;;;25.55;7.45;;;3.80;84.70;;;2.87;69.21;95554.28;5016013;28;20310;-81
2020/12/20 07:59:15;;;;;;;18.70;7.18;;;3.80;84.80;;;2.88;69.29;95553.31;5029491;28;20277;-81
2020/12/20 08:01:45;;;;;;;22.02;7.63;;;3.80;84.80;;;2.88;69.46;95550.72;5035775;28;20230;-81
2020/12/20 08:04:18;;;;;;;10.13;5.88;;;3.80;84.80;;;2.90;69.34;95558.38;5051894;28;20208;-81
2020/12/20 08:06:47;;;;;;;17.63;7.47;;;3.80;84.80;;;2.87;69.04;95549.09;5052122;28;20184;-81
2020/12/20 08:09:23;;;;;;;18.30;8.50;;;3.80;84.70;;;2.91;69.03;95545.28;5035946;28;20223;-81
2020/12/20 08:11:52;;;;;;;29.27;9.93;;;3.80;84.70;;;2.92;69.40;95551.28;5035449;28;20200;-81
2020/12/20 08:14:23;;;;;;;17.38;7.47;;;3.80;84.80;;;2.92;69.09;95551.28;5019157;28;20285;-81
2020/12/20 08:16:52;;;;;;;15.05;6.22;;;3.80;84.70;;;2.91;69.24;95549.66;5034909;28;20301;-81
2020/12/20 08:19:31;;;;;;;10.63;6.15;;;3.80;85.40;;;2.93;69.47;95552.94;5052868;28;20670;-81
2020/12/20 08:22:08;;;;;;;13.85;5.90;;;3.80;84.70;;;2.94;69.13;95557.16;5015723;28;20223;-81
2020/12/20 08:24:39;;;;;;;10.85;6.05;;;3.90;84.80;;;2.96;69.23;95557.88;5048288;28;20291;-81
2020/12/20 08:27:17;;;;;;;15.55;6.80;;;3.90;84.80;;;2.97;69.03;95549.16;5032287;28;20606;-81
2020/12/20 08:29:47;;;;;;;19.02;6.25;;;3.90;84.80;;;2.98;68.95;95561.97;5035193;28;20219;-81
2020/12/20 08:32:22;;;;;;;14.15;5.93;;;3.90;84.80;;;3.01;69.11;95558.31;5048344;28;20275;-81
2020/12/20 08:34:49;;;;;;;12.93;5.10;;;3.90;84.80;;;3.02;69.24;95565.94;5031645;28;20247;-81
2020/12/20 08:37:19;;;;;;;21.05;6.30;;;4.00;84.90;;;3.01;68.98;95566.06;4999212;28;20196;-81
2020/12/20 08:39:46;;;;;;;20.67;5.80;;;3.90;84.90;;;3.01;68.98;95556.50;5015461;28;20270;-82
2020/12/20 08:42:16;;;;;;;11.82;5.35;;;3.90;84.80;;;3.00;69.39;95556.66;5026226;28;20682;-80
2020/12/20 08:44:46;;;;;;;19.50;5.45;;;3.90;84.80;;;3.01;69.27;95558.31;5031735;28;20223;-81
2020/12/20 08:47:18;;;;;;;12.68;5.10;;;3.90;84.80;;;3.02;69.27;95559.94;5031888;28;20204;-81
2020/12/20 08:49:57;;;;;;;14.23;4.97;;;3.90;84.70;;;3.04;69.17;95556.28;5036042;28;20306;-81
2020/12/20 08:52:30;;;;;;;13.80;4.65;;;4.00;84.80;;;3.04;69.32;95556.28;5051603;28;20183;-82
2020/12/20 08:54:59;;;;;;;5.63;4.20;;;3.90;84.80;;;3.07;69.32;95564.75;5034688;28;20670;-81
2020/12/20 08:57:28;;;;;;;6.72;4.70;;;4.00;84.90;;;3.09;69.30;95568.00;5051333;28;20670;-80
2020/12/20 09:00:10;;;;;;;5.32;4.25;;;4.00;84.90;;;3.12;69.13;95578.13;5017721;28;20219;-81
2020/12/20 09:02:38;;;;;;;9.18;4.28;;;4.00;84.90;;;3.12;69.34;95575.53;5035220;28;20187;-79
2020/12/20 09:05:17;;;;;;;9.15;4.72;;;4.00;84.90;;;3.12;69.07;95575.53;5051315;28;20216;-81
2020/12/20 09:07:47;;;;;;;6.20;4.32;;;4.00;84.70;;;3.08;69.00;95572.38;5034684;28;20200;-81
2020/12/20 09:10:26;;;;;;;9.13;4.32;;;4.00;84.70;;;3.10;69.12;95570.50;5048102;28;20209;-81
2020/12/20 09:13:02;;;;;;;8.40;4.60;;;4.00;84.70;;;3.06;69.14;95563.09;5031156;28;20250;-81
2020/12/20 09:15:29;;;;;;;11.52;4.32;;;4.00;84.70;;;3.10;69.04;95577.44;5014756;28;20232;-81
2020/12/20 09:18:02;;;;;;;7.00;5.25;;;4.00;84.70;;;3.09;69.13;95579.22;5031069;28;20204;-80
2020/12/20 09:20:29;;;;;;;10.50;4.82;;;4.10;84.70;;;3.08;69.14;95577.56;5042662;28;20220;-81
2020/12/20 09:22:59;;;;;;;10.63;5.30;;;4.00;84.70;;;3.03;68.92;95567.59;5018003;28;20192;-81
2020/12/20 09:25:35;;;;;;;6.95;4.90;;;4.00;84.60;;;3.08;69.07;95576.75;5034693;28;20204;-80
2020/12/20 09:28:25;;;;;;;7.75;4.68;;;4.00;84.60;;;3.07;69.13;95572.53;5034155;28;20212;-81
2020/12/20 09:30:56;;;;;;;8.02;4.05;;;4.00;84.70;;;3.09;69.06;95578.38;5033872;28;20641;-81
2020/12/20 09:33:28;;;;;;;6.00;3.75;;;4.00;84.70;;;3.13;69.28;95583.19;5048429;28;20201;-81
2020/12/20 09:36:07;;;;;;;4.95;3.78;;;4.00;84.70;;;3.14;69.02;95574.47;5054227;28;20625;-80
2020/12/20 09:38:46;;;;;;;6.68;4.13;;;4.00;84.70;;;3.17;69.41;95575.97;5037366;28;20565;-81
2020/12/20 09:41:35;;;;;;;6.18;4.47;;;4.00;84.80;;;3.17;69.20;95563.00;5065260;28;20196;-81
2020/12/20 09:44:03;;;;;;;13.27;5.00;;;4.10;84.90;;;3.21;69.47;95567.00;5077711;28;20230;-80
2020/12/20 09:46:36;;;;;;;8.20;4.85;;;4.10;84.90;;;3.23;69.05;95567.66;5079618;28;20224;-82
2020/12/20 09:49:04;;;;;;;8.63;5.22;;;4.00;84.80;;;3.25;69.38;95575.31;5053407;28;20223;-81
2020/12/20 09:51:37;;;;;;;6.07;4.47;;;4.10;84.80;;;3.23;69.23;95564.28;5019317;28;20773;-79
2020/12/20 09:54:03;;;;;;;9.70;5.10;;;4.10;84.80;;;3.25;68.96;95565.78;5054630;28;20284;-80
2020/12/20 09:56:30;;;;;;;6.97;4.80;;;4.10;84.80;;;3.26;69.00;95564.00;5054613;28;20230;-81
2020/12/20 09:58:57;;;;;;;8.40;4.82;;;4.10;84.80;;;3.25;69.16;95562.34;5038010;28;20281;-80
2020/12/20 10:01:27;;;;;;;6.43;4.75;;;4.20;84.80;;;3.27;68.91;95563.03;5053779;28;20199;-81
2020/12/20 10:03:54;;;;;;;8.40;4.80;;;4.20;84.80;;;3.22;69.01;95554.84;5021446;28;20592;-81
2020/12/20 10:06:21;;;;;;;8.30;4.75;;;4.20;84.70;;;3.27;69.11;95565.63;5034376;28;20220;-81
2020/12/20 10:08:48;;;;;;;10.35;5.07;;;4.20;84.80;;;3.25;69.06;95551.97;5018092;28;20287;-80
2020/12/20 10:11:21;;;;;;;6.22;4.38;;;4.20;84.80;;;3.22;68.94;95542.69;5034627;28;20605;-81
2020/12/20 10:13:49;;;;;;;5.82;4.35;;;4.30;84.80;;;3.24;69.14;95548.56;5034486;28;20307;-80
2020/12/20 10:16:21;;;;;;;6.82;4.40;;;4.20;84.80;;;3.25;69.10;95539.84;5017956;28;20246;-81
2020/12/20 10:18:47;;;;;;;8.90;4.50;;;4.20;84.70;;;3.25;69.13;95542.44;5019408;28;20566;-80
2020/12/20 10:21:15;;;;;;;11.93;5.18;;;4.20;84.80;;;3.28;69.43;95541.38;5051561;28;20668;-80
2020/12/20 10:23:47;;;;;;;18.40;6.80;;;4.20;84.80;;;3.30;69.06;95542.06;5051840;28;20211;-80
2020/12/20 10:26:14;;;;;;;20.60;5.90;;;4.20;84.80;;;3.30;69.02;95548.06;5053610;28;20742;-81
2020/12/20 10:28:41;;;;;;;55.90;8.65;;;4.20;84.80;;;3.31;69.34;95543.72;5053754;28;20658;-81
2020/12/20 10:31:09;;;;;;;21.70;7.93;;;4.20;84.80;;;3.31;69.11;95543.72;5037638;28;20658;-81
2020/12/20 10:33:37;;;;;;;32.00;7.25;;;4.20;84.80;;;3.32;68.91;95545.31;5020838;28;20204;-81
2020/12/20 10:36:04;;;;;;;31.13;6.43;;;4.30;84.80;;;3.32;69.41;95537.53;5037255;28;20226;-81
2020/12/20 10:38:30;;;;;;;28.00;6.60;;;4.20;84.70;;;3.29;68.88;95535.22;5020133;28;20207;-81
2020/12/20 10:40:58;;;;;;;30.20;7.78;;;4.20;84.70;;;3.31;69.32;95539.31;5032680;28;20220;-81
2020/12/20 10:43:25;;;;;;;34.83;8.32;;;4.20;84.70;;;3.29;69.21;95543.00;5017444;28;20636;-79
2020/12/20 10:45:51;;;;;;;24.83;6.40;;;4.20;84.80;;;3.32;69.39;95535.78;5033751;28;20278;-80
2020/12/20 10:48:18;;;;;;;27.42;6.38;;;4.20;84.80;;;3.33;68.93;95542.63;5025482;28;20277;-81
2020/12/20 10:50:45;;;;;;;26.63;5.22;;;4.20;84.70;;;3.34;69.32;95543.44;5037045;28;20594;-81